createdAt,value
2023-04-18T00:01:34.650Z,54.98
2023-04-18T00:04:03.027Z,54.72
2023-04-18T00:06:31.868Z,53.84
2023-04-18T00:08:59.925Z,53.21
2023-04-18T00:11:27.909Z,52.89
2023-04-18T00:13:57.469Z,52.83
2023-04-18T00:16:25.637Z,52.37
2023-04-18T00:18:55.236Z,52.40
2023-04-18T00:21:25.596Z,52.33
2023-04-18T00:23:53.817Z,52.48
2023-04-18T00:26:21.903Z,52.05
2023-04-18T00:28:50.133Z,52.66
2023-04-18T00:31:20.450Z,53.06
2023-04-18T00:33:49.180Z,53.21
2023-04-18T00:36:17.206Z,53.65
2023-04-18T00:38:46.308Z,53.98
2023-04-18T00:41:16.501Z,54.15
2023-04-18T00:43:44.505Z,54.48
2023-04-18T00:46:12.697Z,53.63
2023-04-18T00:48:42.179Z,53.01
2023-04-18T00:51:11.216Z,52.17
2023-04-18T00:53:39.346Z,51.89
2023-04-18T00:56:07.772Z,51.60
2023-04-18T00:58:35.978Z,51.17
2023-04-18T01:01:04.107Z,51.22
2023-04-18T01:03:52.471Z,50.81
2023-04-18T01:06:20.985Z,50.46
2023-04-18T01:08:49.191Z,50.64
2023-04-18T01:11:19.406Z,50.28
2023-04-18T01:14:00.066Z,49.92
2023-04-18T01:16:29.661Z,49.28
2023-04-18T01:18:59.183Z,49.65
2023-04-18T01:21:31.353Z,49.51
2023-04-18T01:24:04.180Z,49.11
2023-04-18T01:26:33.692Z,48.66
2023-04-18T01:29:04.750Z,48.34
2023-04-18T01:31:35.371Z,47.73
2023-04-18T01:34:05.731Z,47.21
2023-04-18T01:36:34.329Z,47.89
2023-04-18T01:39:04.217Z,47.77
2023-04-18T01:41:33.636Z,47.65
2023-04-18T01:44:02.005Z,47.54
2023-04-18T01:46:30.400Z,47.09
2023-04-18T01:48:58.855Z,47.02
2023-04-18T01:51:31.421Z,47.16
2023-04-18T01:54:00.228Z,47.20
2023-04-18T01:56:28.295Z,46.88
2023-04-18T01:59:00.520Z,47.04
2023-04-18T02:01:29.419Z,46.71
2023-04-18T02:04:00.147Z,46.57
2023-04-18T02:06:28.400Z,46.83
2023-04-18T02:08:56.352Z,46.87
2023-04-18T02:11:26.432Z,46.35
2023-04-18T02:13:54.496Z,45.97
2023-04-18T02:16:24.105Z,46.41
2023-04-18T02:18:52.930Z,46.02
2023-04-18T02:21:21.979Z,46.46
2023-04-18T02:23:51.143Z,46.13
2023-04-18T02:26:23.140Z,46.29
2023-04-18T02:28:52.216Z,46.46
2023-04-18T02:31:20.318Z,46.10
2023-04-18T02:33:49.702Z,45.54
2023-04-18T02:36:17.708Z,44.88
2023-04-18T02:38:46.020Z,44.56
2023-04-18T02:41:17.483Z,44.21
2023-04-18T02:43:45.750Z,43.95
2023-04-18T02:46:16.142Z,44.08
2023-04-18T02:48:46.876Z,43.57
2023-04-18T02:51:19.937Z,42.68
2023-04-18T02:53:48.429Z,42.75
2023-04-18T02:56:17.968Z,42.90
2023-04-18T02:59:04.269Z,42.99
2023-04-18T03:01:45.921Z,42.91
2023-04-18T03:04:17.846Z,42.60
2023-04-18T03:06:56.125Z,42.97
2023-04-18T03:09:24.382Z,42.45
2023-04-18T03:11:57.821Z,42.84
2023-04-18T03:14:28.806Z,43.28
2023-04-18T03:16:57.465Z,43.51
2023-04-18T03:19:31.890Z,43.64
2023-04-18T03:22:07.388Z,42.87
2023-04-18T03:24:40.059Z,41.65
2023-04-18T03:27:09.422Z,40.73
2023-04-18T03:29:40.084Z,40.00
2023-04-18T03:32:08.766Z,39.06
2023-04-18T03:34:36.989Z,38.08
2023-04-18T03:37:09.330Z,37.54
2023-04-18T03:39:43.963Z,38.20
2023-04-18T03:42:12.327Z,37.53
2023-04-18T03:44:41.948Z,37.35
2023-04-18T03:47:10.349Z,36.89
2023-04-18T03:49:41.848Z,36.77
2023-04-18T03:52:11.592Z,35.68
2023-04-18T03:54:39.704Z,35.44
2023-04-18T03:57:07.840Z,34.35
2023-04-18T03:59:37.897Z,33.51
2023-04-18T04:02:07.828Z,32.77
2023-04-18T04:04:36.155Z,31.99
2023-04-18T04:07:04.637Z,30.95
2023-04-18T04:09:34.097Z,29.37
2023-04-18T04:12:02.423Z,27.64
2023-04-18T04:14:31.272Z,26.48
2023-04-18T04:16:59.509Z,25.26
2023-04-18T04:19:27.588Z,25.39
2023-04-18T04:22:06.786Z,23.11
2023-04-18T04:24:38.457Z,21.09
2023-04-18T04:27:08.216Z,21.19
2023-04-18T04:29:39.384Z,21.26
2023-04-18T04:32:08.618Z,19.11
2023-04-18T04:34:41.393Z,19.16
2023-04-18T04:37:14.096Z,19.43
2023-04-18T04:39:56.594Z,19.30
2023-04-18T04:42:37.688Z,18.68
2023-04-18T04:45:13.118Z,18.14
2023-04-18T04:47:41.324Z,17.80
2023-04-18T04:50:14.750Z,17.06
2023-04-18T04:52:42.990Z,16.46
2023-04-18T04:55:12.494Z,16.66
2023-04-18T04:57:42.071Z,16.67
2023-04-18T05:00:42.717Z,16.00
2023-04-18T05:03:11.813Z,15.49
2023-04-18T05:05:40.279Z,15.74
2023-04-18T05:08:08.366Z,14.23
2023-04-18T05:10:37.997Z,13.97
2023-04-18T05:13:06.189Z,13.65
2023-04-18T05:15:34.270Z,13.54
2023-04-18T05:18:03.468Z,13.37
2023-04-18T05:20:32.291Z,13.04
2023-04-18T05:23:00.389Z,13.18
2023-04-18T05:25:29.831Z,12.67
2023-04-18T05:28:04.521Z,12.06
2023-04-18T05:30:33.865Z,12.42
2023-04-18T05:33:02.038Z,12.03
2023-04-18T05:35:30.295Z,12.40
2023-04-18T05:37:59.546Z,12.77
2023-04-18T05:40:28.342Z,12.10
2023-04-18T05:42:56.440Z,13.08
2023-04-18T05:45:25.782Z,13.62
2023-04-18T05:47:54.608Z,13.60
2023-04-18T05:50:23.189Z,13.10
2023-04-18T05:52:51.272Z,12.43
2023-04-18T05:55:19.674Z,13.12
2023-04-18T05:57:48.052Z,13.47
2023-04-18T06:00:17.171Z,13.19
2023-04-18T06:02:46.903Z,12.92
2023-04-18T06:05:15.616Z,12.40
2023-04-18T06:07:43.992Z,12.45
2023-04-18T06:10:13.627Z,12.49
2023-04-18T06:12:42.076Z,12.72
2023-04-18T06:15:11.761Z,12.82
2023-04-18T06:17:39.872Z,13.46
2023-04-18T06:20:11.285Z,12.06
2023-04-18T06:22:39.453Z,11.83
2023-04-18T06:25:10.153Z,11.03
2023-04-18T06:27:38.960Z,10.97
2023-04-18T06:30:08.195Z,10.55
2023-04-18T06:32:36.327Z,9.96
2023-04-18T06:35:04.785Z,9.30
2023-04-18T06:37:34.402Z,9.45
2023-04-18T06:40:02.460Z,10.28
2023-04-18T06:42:31.234Z,11.17
2023-04-18T06:44:59.358Z,11.83
2023-04-18T06:47:27.560Z,12.51
2023-04-18T06:49:55.545Z,12.68
2023-04-18T06:52:23.819Z,12.83
2023-04-18T06:54:53.264Z,13.65
2023-04-18T06:57:21.633Z,15.10
2023-04-18T06:59:49.692Z,15.02
2023-04-18T07:02:17.878Z,14.07
2023-04-18T07:04:46.094Z,13.74
2023-04-18T07:07:14.225Z,13.13
2023-04-18T07:09:42.372Z,13.16
2023-04-18T07:12:11.881Z,13.23
2023-04-18T07:14:40.061Z,13.36
2023-04-18T07:17:08.263Z,13.41
2023-04-18T07:19:36.589Z,13.73
2023-04-18T07:22:04.638Z,14.57
2023-04-18T07:24:32.665Z,15.27
2023-04-18T07:27:01.487Z,16.16
2023-04-18T07:29:31.169Z,16.09
2023-04-18T07:31:59.641Z,15.38
2023-04-18T07:34:29.869Z,14.91
2023-04-18T07:36:58.130Z,15.19
2023-04-18T07:39:26.414Z,16.59
2023-04-18T07:41:54.813Z,16.65
2023-04-18T07:44:25.384Z,16.13
2023-04-18T07:46:55.885Z,16.40
2023-04-18T07:49:23.892Z,17.48
2023-04-18T07:51:52.050Z,17.62
2023-04-18T07:54:20.108Z,17.99
2023-04-18T07:56:48.265Z,19.04
2023-04-18T07:59:16.619Z,18.71
2023-04-18T08:01:45.095Z,19.06
2023-04-18T08:04:15.089Z,17.43
2023-04-18T08:06:43.324Z,17.23
2023-04-18T08:09:12.086Z,16.79
2023-04-18T08:11:42.074Z,16.73
2023-04-18T08:14:10.240Z,16.42
2023-04-18T08:16:38.444Z,16.03
2023-04-18T08:19:06.974Z,16.18
2023-04-18T08:21:36.546Z,17.04
2023-04-18T08:24:04.705Z,17.09
2023-04-18T08:26:32.866Z,17.94
2023-04-18T08:29:00.906Z,18.14
2023-04-18T08:31:31.683Z,18.92
2023-04-18T08:33:59.808Z,19.86
2023-04-18T08:36:28.044Z,20.87
2023-04-18T08:38:58.117Z,21.25
2023-04-18T08:41:28.746Z,21.51
2023-04-18T08:43:57.216Z,21.80
2023-04-18T08:46:25.575Z,21.94
2023-04-18T08:48:53.819Z,22.39
2023-04-18T08:51:21.920Z,22.21
2023-04-18T08:53:50.721Z,22.53
2023-04-18T08:56:22.477Z,22.95
2023-04-18T08:58:50.833Z,22.78
2023-04-18T09:01:18.955Z,23.13
2023-04-18T09:03:47.142Z,23.16
2023-04-18T09:06:18.993Z,22.92
2023-04-18T09:08:57.544Z,22.18
2023-04-18T09:11:28.982Z,21.71
2023-04-18T09:13:59.964Z,22.07
2023-04-18T09:16:29.344Z,21.97
2023-04-18T09:19:11.985Z,21.32
2023-04-18T09:21:41.849Z,21.20
2023-04-18T09:24:23.980Z,21.70
2023-04-18T09:26:55.881Z,22.40
2023-04-18T09:29:42.205Z,21.86
2023-04-18T09:32:11.319Z,22.58
2023-04-18T09:34:43.137Z,22.98
2023-04-18T09:37:12.470Z,22.98
2023-04-18T09:39:42.438Z,22.92
2023-04-18T09:42:12.660Z,22.91
2023-04-18T09:44:59.616Z,22.69
2023-04-18T09:47:29.017Z,22.92
2023-04-18T09:49:57.626Z,22.65
2023-04-18T09:52:26.837Z,22.41
2023-04-18T09:55:00.832Z,22.65
2023-04-18T09:57:32.456Z,22.40
2023-04-18T10:00:08.745Z,22.41
2023-04-18T10:02:48.599Z,22.37
2023-04-18T10:05:19.530Z,22.01
2023-04-18T10:07:50.648Z,22.04
2023-04-18T10:10:19.213Z,21.58
2023-04-18T10:12:51.750Z,19.51
2023-04-18T10:15:22.162Z,19.78
2023-04-18T10:18:04.410Z,18.83
2023-04-18T10:20:35.388Z,18.57
2023-04-18T10:23:37.610Z,17.71
2023-04-18T10:26:09.874Z,17.80
2023-04-18T10:28:54.674Z,18.43
2023-04-18T10:31:24.496Z,18.56
2023-04-18T10:36:28.452Z,18.54
2023-04-18T10:39:02.942Z,19.04
2023-04-18T10:41:33.450Z,18.95
2023-04-18T10:44:32.823Z,19.70
2023-04-18T10:47:31.621Z,19.55
2023-04-18T10:50:06.153Z,19.69
2023-04-18T10:52:35.156Z,18.46
2023-04-18T10:55:14.746Z,17.88
2023-04-18T10:57:47.053Z,17.98
2023-04-18T11:00:18.634Z,18.56
2023-04-18T11:02:53.903Z,18.50
2023-04-18T11:05:25.040Z,18.21
2023-04-18T11:07:53.420Z,17.85
2023-04-18T11:10:23.772Z,17.78
2023-04-18T11:12:52.560Z,17.95
2023-04-18T11:15:23.870Z,18.13
2023-04-18T11:18:00.015Z,18.28
2023-04-18T11:20:28.630Z,17.46
2023-04-18T11:22:57.664Z,18.19
2023-04-18T11:25:27.814Z,17.93
2023-04-18T11:27:59.203Z,17.72
2023-04-18T11:30:31.385Z,17.23
2023-04-18T11:32:59.542Z,16.94
2023-04-18T11:35:28.017Z,17.29
2023-04-18T11:37:56.519Z,16.92
2023-04-18T11:40:24.653Z,17.12
2023-04-18T11:42:55.763Z,16.76
2023-04-18T11:45:23.973Z,16.57
2023-04-18T11:47:57.479Z,17.38
2023-04-18T11:50:28.025Z,17.72
2023-04-18T11:52:57.819Z,17.01
2023-04-18T11:55:27.372Z,17.01
2023-04-18T11:57:56.589Z,16.17
2023-04-18T12:00:35.432Z,16.37
2023-04-18T12:03:06.896Z,16.60
2023-04-18T12:05:37.120Z,16.58
2023-04-18T12:08:13.125Z,16.47
2023-04-18T12:10:47.827Z,17.50
2023-04-18T12:13:16.143Z,17.20
2023-04-18T12:15:45.665Z,17.80
2023-04-18T12:18:18.279Z,16.75
2023-04-18T12:20:50.285Z,17.36
2023-04-18T12:23:32.869Z,16.47
2023-04-18T12:26:02.369Z,18.00
2023-04-18T12:28:31.039Z,17.24
2023-04-18T12:30:59.352Z,16.41
2023-04-18T12:33:29.004Z,16.45
2023-04-18T12:35:57.434Z,17.40
2023-04-18T12:38:25.708Z,16.03
2023-04-18T12:40:53.953Z,16.30
2023-04-18T12:43:22.016Z,16.87
2023-04-18T12:45:51.522Z,16.43
2023-04-18T12:48:19.664Z,17.48
2023-04-18T12:50:49.145Z,16.81
2023-04-18T12:53:17.416Z,17.03
2023-04-18T12:55:45.886Z,16.64
2023-04-18T12:58:18.579Z,17.17
2023-04-18T13:00:46.988Z,17.24
2023-04-18T13:03:15.589Z,16.84
2023-04-18T13:05:43.887Z,16.82
2023-04-18T13:08:17.627Z,17.96
2023-04-18T13:10:47.639Z,17.37
2023-04-18T13:13:16.728Z,17.45
2023-04-18T13:15:44.859Z,17.51
2023-04-18T13:18:13.059Z,17.56
2023-04-18T13:20:41.144Z,18.22
2023-04-18T13:23:09.183Z,18.03
2023-04-18T13:25:38.563Z,17.99
2023-04-18T13:28:06.798Z,17.86
2023-04-18T13:30:35.848Z,17.83
2023-04-18T13:33:05.274Z,16.99
2023-04-18T13:35:33.419Z,17.22
2023-04-18T13:38:01.475Z,17.72
2023-04-18T13:40:29.509Z,19.12
2023-04-18T13:42:58.930Z,18.11
2023-04-18T13:45:27.502Z,19.02
2023-04-18T13:47:55.605Z,17.87
2023-04-18T13:50:24.463Z,17.97
2023-04-18T13:52:54.659Z,19.05
2023-04-18T13:55:22.945Z,18.78
2023-04-18T13:57:51.102Z,18.85
2023-04-18T14:00:21.650Z,18.06
2023-04-18T14:02:51.088Z,18.60
2023-04-18T14:05:19.477Z,17.89
2023-04-18T14:07:48.607Z,18.62
2023-04-18T14:10:16.668Z,17.74
2023-04-18T14:12:44.798Z,18.62
2023-04-18T14:15:13.146Z,19.15
2023-04-18T14:17:45.313Z,18.73
2023-04-18T14:20:15.644Z,18.39
2023-04-18T14:22:43.918Z,17.62
2023-04-18T14:25:12.015Z,18.48
2023-04-18T14:27:40.401Z,18.54
2023-04-18T14:30:10.114Z,18.13
2023-04-18T14:32:38.270Z,18.23
2023-04-18T14:35:09.324Z,19.48
2023-04-18T14:37:40.822Z,19.14
2023-04-18T14:40:11.320Z,18.04
2023-04-18T14:42:39.493Z,18.39
2023-04-18T14:45:08.794Z,18.68
2023-04-18T14:47:39.102Z,18.31
2023-04-18T14:50:11.855Z,18.48
2023-04-18T14:52:40.434Z,18.69
2023-04-18T14:55:09.870Z,18.62
2023-04-18T14:57:39.202Z,18.53
2023-04-18T15:00:11.425Z,18.46
2023-04-18T15:02:40.044Z,18.22
2023-04-18T15:05:11.123Z,18.77
2023-04-18T15:07:40.793Z,18.67
2023-04-18T15:10:12.655Z,18.62
2023-04-18T15:12:41.666Z,18.40
2023-04-18T15:15:10.497Z,18.89
2023-04-18T15:17:38.707Z,19.07
2023-04-18T15:20:09.504Z,19.10
2023-04-18T15:22:37.784Z,18.64
2023-04-18T15:25:06.646Z,19.32
2023-04-18T15:27:34.880Z,18.24
2023-04-18T15:30:03.836Z,18.33
2023-04-18T15:32:32.985Z,18.97
2023-04-18T15:35:01.084Z,17.68
2023-04-18T15:37:30.539Z,17.91
2023-04-18T15:39:58.789Z,17.19
2023-04-18T15:42:28.035Z,17.73
2023-04-18T15:44:56.393Z,18.10
2023-04-18T15:47:24.484Z,17.65
2023-04-18T15:49:52.575Z,17.90
2023-04-18T15:52:20.756Z,18.19
2023-04-18T15:54:53.038Z,18.35
2023-04-18T15:57:21.974Z,17.53
2023-04-18T15:59:50.123Z,16.71
2023-04-18T16:02:18.250Z,17.20
2023-04-18T16:04:46.708Z,16.87
2023-04-18T16:07:16.012Z,17.13
2023-04-18T16:09:44.163Z,16.87
2023-04-18T16:12:13.640Z,17.30
2023-04-18T16:14:41.782Z,17.34
2023-04-18T16:17:09.946Z,16.86
2023-04-18T16:19:40.935Z,16.84
2023-04-18T16:22:09.122Z,17.03
2023-04-18T16:24:37.184Z,16.42
2023-04-18T16:27:05.747Z,16.29
2023-04-18T16:29:35.501Z,16.51
2023-04-18T16:32:03.789Z,16.58
2023-04-18T16:34:32.073Z,16.37
2023-04-18T16:37:00.188Z,16.62
2023-04-18T16:39:31.505Z,16.75
2023-04-18T16:41:59.733Z,16.43
2023-04-18T16:44:27.941Z,16.46
2023-04-18T16:46:57.424Z,16.28
2023-04-18T16:49:26.159Z,16.10
2023-04-18T16:51:54.212Z,16.35
2023-04-18T16:54:22.356Z,15.94
2023-04-18T16:56:50.442Z,16.38
2023-04-18T16:59:18.570Z,16.85
2023-04-18T17:01:46.764Z,16.30
2023-04-18T17:04:17.228Z,16.89
2023-04-18T17:06:45.574Z,16.89
2023-04-18T17:09:14.826Z,16.79
2023-04-18T17:11:43.110Z,16.95
2023-04-18T17:14:11.564Z,16.97
2023-04-18T17:16:41.695Z,17.00
2023-04-18T17:19:11.292Z,17.51
2023-04-18T17:21:40.906Z,17.26
2023-04-18T17:24:09.431Z,17.60
2023-04-18T17:26:39.527Z,18.15
2023-04-18T17:29:08.798Z,17.96
2023-04-18T17:31:37.461Z,17.73
2023-04-18T17:34:06.101Z,17.66
2023-04-18T17:36:34.385Z,18.20
2023-04-18T17:39:06.459Z,17.93
2023-04-18T17:41:37.699Z,17.80
2023-04-18T17:44:07.887Z,18.53
2023-04-18T17:46:36.363Z,18.90
2023-04-18T17:49:04.705Z,18.46
2023-04-18T17:51:32.991Z,18.77
2023-04-18T17:54:00.997Z,18.47
2023-04-18T17:56:31.539Z,19.41
2023-04-18T17:58:59.650Z,19.35
2023-04-18T18:01:30.315Z,18.88
2023-04-18T18:03:58.905Z,19.08
2023-04-18T18:06:27.870Z,18.80
2023-04-18T18:08:56.061Z,19.75
2023-04-18T18:11:24.225Z,19.80
2023-04-18T18:13:55.624Z,19.77
2023-04-18T18:16:24.120Z,19.87
2023-04-18T18:18:52.591Z,19.91
2023-04-18T18:21:20.826Z,19.94
2023-04-18T18:23:48.908Z,20.48
2023-04-18T18:26:16.954Z,19.45
2023-04-18T18:28:45.024Z,19.49
2023-04-18T18:31:14.524Z,20.79
2023-04-18T18:33:42.579Z,20.25
2023-04-18T18:36:10.575Z,20.63
2023-04-18T18:38:38.683Z,21.09
2023-04-18T18:41:07.143Z,20.62
2023-04-18T18:43:35.517Z,20.44
2023-04-18T18:46:03.533Z,20.48
2023-04-18T18:48:36.934Z,20.85
2023-04-18T18:51:05.198Z,21.80
2023-04-18T18:53:33.207Z,21.81
2023-04-18T18:56:01.678Z,21.33
2023-04-18T18:58:29.726Z,21.77
2023-04-18T19:00:59.913Z,21.98
2023-04-18T19:03:28.225Z,21.65
2023-04-18T19:05:57.713Z,21.66
2023-04-18T19:08:25.865Z,21.76
2023-04-18T19:10:54.005Z,22.02
2023-04-18T19:13:23.895Z,22.11
2023-04-18T19:15:52.193Z,22.37
2023-04-18T19:18:20.521Z,21.93
2023-04-18T19:20:49.841Z,22.46
2023-04-18T19:23:19.518Z,22.83
2023-04-18T19:25:47.776Z,22.15
2023-04-18T19:28:18.095Z,23.13
2023-04-18T19:30:47.259Z,23.11
2023-04-18T19:33:15.443Z,22.42
2023-04-18T19:35:44.099Z,23.07
2023-04-18T19:38:12.145Z,23.58
2023-04-18T19:40:41.721Z,22.89
2023-04-18T19:43:09.849Z,23.10
2023-04-18T19:45:38.051Z,23.05
2023-04-18T19:48:06.814Z,23.25
2023-04-18T19:50:34.886Z,24.03
2023-04-18T19:53:03.041Z,23.78
2023-04-18T19:55:31.594Z,23.81
2023-04-18T19:58:01.104Z,23.52
2023-04-18T20:00:29.404Z,24.21
2023-04-18T20:02:58.673Z,24.13
2023-04-18T20:05:27.003Z,23.68
2023-04-18T20:07:55.052Z,23.90
2023-04-18T20:10:23.215Z,23.76
2023-04-18T20:12:51.519Z,23.93
2023-04-18T20:15:30.756Z,24.04
2023-04-18T20:17:59.642Z,24.44
2023-04-18T20:20:28.034Z,24.72
2023-04-18T20:22:56.182Z,24.38
2023-04-18T20:25:24.439Z,24.21
2023-04-18T20:27:52.653Z,24.23
2023-04-18T20:30:23.346Z,24.91
2023-04-18T20:32:51.628Z,24.67
2023-04-18T20:35:20.514Z,24.91
2023-04-18T20:37:49.848Z,25.05
2023-04-18T20:40:18.645Z,25.95
2023-04-18T20:42:46.827Z,25.34
2023-04-18T20:45:14.947Z,25.55
2023-04-18T20:47:44.480Z,26.20
2023-04-18T20:50:14.048Z,26.40
2023-04-18T20:52:42.871Z,26.15
2023-04-18T20:55:11.285Z,26.31
2023-04-18T20:57:39.292Z,26.67
2023-04-18T21:00:10.547Z,27.24
2023-04-18T21:02:39.084Z,27.00
2023-04-18T21:05:09.346Z,27.69
2023-04-18T21:07:37.774Z,27.31
2023-04-18T21:10:06.338Z,27.58
2023-04-18T21:12:34.613Z,27.86
2023-04-18T21:15:02.628Z,27.00
2023-04-18T21:17:31.448Z,28.20
2023-04-18T21:19:59.555Z,27.71
2023-04-18T21:22:28.950Z,27.70
2023-04-18T21:24:56.974Z,27.62
2023-04-18T21:27:25.115Z,28.40
2023-04-18T21:29:53.075Z,27.90
2023-04-18T21:32:21.089Z,28.30
2023-04-18T21:34:49.069Z,28.63
2023-04-18T21:37:16.992Z,28.33
2023-04-18T21:39:46.479Z,28.70
2023-04-18T21:42:14.454Z,28.51
2023-04-18T21:44:42.442Z,29.07
2023-04-18T21:47:10.378Z,28.57
2023-04-18T21:49:38.346Z,28.88
2023-04-18T21:52:07.636Z,28.50
2023-04-18T21:54:35.648Z,28.83
2023-04-18T21:57:05.967Z,27.95
2023-04-18T21:59:33.945Z,28.42
2023-04-18T22:02:02.168Z,28.99
2023-04-18T22:04:30.306Z,28.05
2023-04-18T22:06:58.583Z,28.81
2023-04-18T22:09:26.553Z,28.62
2023-04-18T22:11:56.891Z,28.59
2023-04-18T22:14:28.183Z,28.61
2023-04-18T22:16:56.293Z,28.58
2023-04-18T22:19:24.785Z,28.30
2023-04-18T22:21:52.808Z,28.54
2023-04-18T22:24:21.992Z,29.00
2023-04-18T22:26:50.092Z,28.53
2023-04-18T22:29:18.033Z,29.13
2023-04-18T22:31:47.512Z,29.75
2023-04-18T22:34:15.846Z,29.66
2023-04-18T22:36:45.568Z,29.77
2023-04-18T22:39:13.614Z,30.04
2023-04-18T22:41:41.574Z,30.26
2023-04-18T22:44:09.942Z,30.46
2023-04-18T22:46:39.286Z,30.31
2023-04-18T22:49:08.692Z,30.37
2023-04-18T22:51:38.211Z,30.64
2023-04-18T22:54:06.658Z,30.63
2023-04-18T22:56:34.570Z,31.20
2023-04-18T22:59:02.551Z,31.30
2023-04-18T23:01:30.736Z,31.68
2023-04-18T23:03:59.104Z,31.92
2023-04-18T23:06:30.009Z,31.94
2023-04-18T23:08:58.067Z,32.03
2023-04-18T23:11:26.324Z,32.40
2023-04-18T23:13:54.276Z,32.39
2023-04-18T23:16:23.063Z,32.82
2023-04-18T23:18:52.146Z,32.61
2023-04-18T23:21:20.114Z,32.86
2023-04-18T23:23:49.529Z,33.28
2023-04-18T23:26:17.590Z,33.36
2023-04-18T23:28:45.594Z,33.55
2023-04-18T23:31:13.640Z,33.68
2023-04-18T23:33:41.642Z,34.07
2023-04-18T23:36:10.027Z,34.28
2023-04-18T23:38:38.475Z,34.49
2023-04-18T23:41:08.050Z,34.83
2023-04-18T23:43:36.846Z,34.94
2023-04-18T23:46:04.979Z,35.01
2023-04-18T23:48:33.112Z,35.18
2023-04-18T23:51:02.417Z,35.15
2023-04-18T23:53:30.677Z,35.44
2023-04-18T23:55:58.606Z,35.79
2023-04-18T23:58:28.076Z,35.99
